Vermontville, New York
Current Conditions -  °F | °C
As of 3:51 PM on Friday 24 Oct 2014 (Local Time) from KSLK Reporting Station
Overcast Overcast  
Wind Chill: 43°   Ceiling: 1600
Heat Index: 45°   Visibility: 10mi
Dew Point: 40°   Wind: 5mph
Humidity: 82%   Direction: 350°N
Pressure: 29.83"   Gusts: NA
Location:  44.45°N, 74.07°W
Report Text: KSLK 241951Z AUTO 35004KT 10SM OVC016 07/04 A2983 RMK AO2 SLP111 T00720044
Loading
Personal Weather Stations






























Interactive Weather Map
Tropical Storm Tracking
New forecast layout! Learn more

10-Day Weather Forecast

Advertisements
Track Severe Weather on mobile